Time;durP1;ratioP1;P1;durP2;ratioP2;P2;SDS_P1;SDS_P2;PMS_P1;PMS_P2;Temp;Humidity;BMP_temperature;BMP_pressure;BME280_temperature;BME280_humidity;BME280_pressure;Samples;Min_cycle;Max_cycle;Signal;HPM_P1;HPM_P2
2023/11/05 00:02:01;;;;;;;1.60;0.80;;;11.60;99.90;;;;;;5054146;28;20543;-75
2023/11/05 00:04:47;;;;;;;1.67;1.10;;;11.60;99.90;;;;;;5064035;28;20469;-75
2023/11/05 00:07:33;;;;;;;2.57;1.40;;;11.60;99.90;;;;;;5053181;28;20457;-74
2023/11/05 00:10:18;;;;;;;1.97;0.87;;;11.50;99.90;;;;;;5057882;28;20455;-75
2023/11/05 00:13:04;;;;;;;1.40;0.70;;;11.50;99.90;;;;;;5053727;28;20520;-75
2023/11/05 00:15:54;;;;;;;2.37;0.90;;;11.50;99.90;;;;;;5049640;28;20437;-75
2023/11/05 00:18:39;;;;;;;1.53;0.70;;;11.60;99.90;;;;;;5053026;28;20492;-74
2023/11/05 00:21:25;;;;;;;2.23;0.80;;;11.60;99.90;;;;;;5049466;28;20454;-75
2023/11/05 00:24:11;;;;;;;4.17;0.93;;;11.60;99.90;;;;;;5048185;28;20513;-75
2023/11/05 00:26:57;;;;;;;3.50;1.10;;;11.60;99.90;;;;;;5050386;28;20513;-74
2023/11/05 00:29:43;;;;;;;1.47;0.60;;;11.60;99.90;;;;;;5051530;28;20973;-75
2023/11/05 00:32:30;;;;;;;2.40;0.90;;;11.60;99.90;;;;;;5049048;28;20455;-75
2023/11/05 00:35:15;;;;;;;10.43;1.10;;;11.60;99.90;;;;;;5047859;28;20442;-74
2023/11/05 00:38:00;;;;;;;2.93;0.90;;;11.60;99.90;;;;;;5056389;28;20623;-76
2023/11/05 00:40:46;;;;;;;5.90;1.23;;;11.60;99.90;;;;;;5046285;28;20803;-74
2023/11/05 00:43:32;;;;;;;2.53;0.77;;;11.60;99.90;;;;;;5053975;28;20470;-75
2023/11/05 00:46:19;;;;;;;3.20;0.90;;;11.50;99.90;;;;;;5053423;28;20475;-75
2023/11/05 00:49:07;;;;;;;3.10;0.70;;;11.50;99.90;;;;;;5058300;28;20487;-75
2023/11/05 00:51:53;;;;;;;5.23;1.00;;;11.50;99.90;;;;;;5051330;28;20454;-76
2023/11/05 00:54:39;;;;;;;3.50;1.03;;;11.50;99.90;;;;;;5053209;28;20580;-75
2023/11/05 00:57:24;;;;;;;2.07;0.70;;;11.50;99.90;;;;;;5046281;28;20469;-75
2023/11/05 01:00:12;;;;;;;1.90;0.90;;;11.50;99.90;;;;;;5052918;28;20483;-75
2023/11/05 01:02:58;;;;;;;3.00;1.07;;;11.50;99.90;;;;;;5054678;28;20575;-75
2023/11/05 01:05:45;;;;;;;2.70;1.27;;;11.50;99.90;;;;;;5054664;28;20562;-74
2023/11/05 01:08:30;;;;;;;6.00;0.87;;;11.50;99.90;;;;;;5054782;28;20497;-75
2023/11/05 01:11:16;;;;;;;3.50;1.00;;;11.50;99.90;;;;;;5053632;28;20987;-73
2023/11/05 01:14:03;;;;;;;3.93;1.00;;;11.60;99.90;;;;;;5050472;28;20454;-76
2023/11/05 01:16:49;;;;;;;3.40;1.00;;;11.60;99.90;;;;;;5054619;28;20463;-75
2023/11/05 01:19:34;;;;;;;2.80;1.20;;;11.60;99.90;;;;;;5055782;28;20441;-75
2023/11/05 01:22:22;;;;;;;2.93;0.90;;;11.60;99.90;;;;;;5051377;28;20772;-74
2023/11/05 01:25:08;;;;;;;5.30;1.13;;;11.60;99.90;;;;;;5054005;28;20490;-75
2023/11/05 01:27:54;;;;;;;2.80;1.07;;;11.60;99.90;;;;;;5046911;28;20432;-75
2023/11/05 01:30:39;;;;;;;6.40;0.80;;;11.60;99.90;;;;;;5050562;28;20489;-75
2023/11/05 01:33:25;;;;;;;4.60;1.57;;;11.60;99.90;;;;;;5053406;28;20451;-75
2023/11/05 01:36:11;;;;;;;2.33;0.83;;;11.60;99.90;;;;;;5049149;28;20497;-75
2023/11/05 01:38:58;;;;;;;2.03;0.90;;;11.60;99.90;;;;;;5054861;28;20442;-76
2023/11/05 01:41:43;;;;;;;2.00;0.73;;;11.60;99.90;;;;;;5049000;28;20649;-75
2023/11/05 01:44:29;;;;;;;9.27;1.20;;;11.60;99.90;;;;;;5051230;28;20625;-75
2023/11/05 01:47:15;;;;;;;3.60;1.00;;;11.60;99.90;;;;;;5057390;28;20474;-74
2023/11/05 01:50:02;;;;;;;3.93;1.00;;;11.60;99.90;;;;;;5052222;28;20451;-75
2023/11/05 01:52:48;;;;;;;5.60;1.20;;;11.60;99.90;;;;;;5056840;28;20542;-76
2023/11/05 01:55:36;;;;;;;2.10;0.90;;;11.70;99.90;;;;;;5054060;28;20446;-75
2023/11/05 01:58:21;;;;;;;6.40;1.00;;;11.70;99.90;;;;;;5050883;28;20871;-75
2023/11/05 02:01:09;;;;;;;2.17;1.10;;;11.70;99.90;;;;;;5051333;28;20457;-75
2023/11/05 02:03:54;;;;;;;2.33;1.00;;;11.70;99.90;;;;;;5051175;28;20458;-75
2023/11/05 02:06:40;;;;;;;3.00;1.17;;;11.50;99.90;;;;;;5054403;28;20444;-74
2023/11/05 02:09:25;;;;;;;5.10;0.83;;;11.60;99.90;;;;;;5049008;28;20428;-75
2023/11/05 02:12:13;;;;;;;4.10;0.60;;;11.50;99.90;;;;;;5050938;28;20420;-74
2023/11/05 02:14:58;;;;;;;1.87;0.70;;;11.50;99.90;;;;;;5050992;28;20602;-76
2023/11/05 02:17:44;;;;;;;2.90;0.83;;;11.50;99.90;;;;;;5058047;28;20477;-76
2023/11/05 02:20:30;;;;;;;4.53;0.90;;;11.50;99.90;;;;;;5049722;28;20474;-76
2023/11/05 02:23:18;;;;;;;1.60;0.90;;;11.50;99.90;;;;;;5054306;28;20968;-75
2023/11/05 02:26:04;;;;;;;3.23;0.87;;;11.40;99.90;;;;;;5050888;28;20505;-75
2023/11/05 02:28:50;;;;;;;2.57;1.00;;;11.40;99.90;;;;;;5052167;28;20442;-75
2023/11/05 02:31:35;;;;;;;2.07;0.90;;;11.40;99.90;;;;;;5049012;28;20520;-75
2023/11/05 02:34:21;;;;;;;3.60;1.10;;;11.40;99.90;;;;;;5048549;28;20451;-74
2023/11/05 02:37:07;;;;;;;7.10;1.17;;;11.40;99.90;;;;;;5050924;28;20840;-75
2023/11/05 02:39:54;;;;;;;1.93;1.00;;;11.40;99.90;;;;;;5051960;28;20617;-76
2023/11/05 02:42:40;;;;;;;3.30;1.00;;;11.40;99.90;;;;;;5056125;28;20442;-75
2023/11/05 02:45:25;;;;;;;2.80;0.80;;;11.50;99.90;;;;;;5049571;28;20879;-75
2023/11/05 02:48:11;;;;;;;2.03;0.90;;;11.50;99.90;;;;;;5048225;28;20430;-75
2023/11/05 02:50:57;;;;;;;2.83;0.90;;;11.50;99.90;;;;;;5051856;28;20442;-75
2023/11/05 02:53:42;;;;;;;6.53;1.10;;;11.50;99.90;;;;;;5049338;28;20558;-75
2023/11/05 02:56:29;;;;;;;4.37;1.13;;;11.50;99.90;;;;;;5048713;28;20479;-75
2023/11/05 02:59:18;;;;;;;3.70;1.00;;;11.50;99.90;;;;;;5051706;28;20455;-74
2023/11/05 03:02:04;;;;;;;3.30;0.80;;;11.40;99.90;;;;;;5049968;28;20466;-75
2023/11/05 03:04:50;;;;;;;3.13;1.00;;;11.40;99.90;;;;;;5047831;28;20976;-75
2023/11/05 03:07:35;;;;;;;4.93;1.40;;;11.50;99.90;;;;;;5051759;28;20461;-75
2023/11/05 03:10:21;;;;;;;6.33;1.40;;;11.50;99.90;;;;;;5044992;28;20973;-75
2023/11/05 03:13:08;;;;;;;4.07;1.10;;;11.50;99.90;;;;;;5052512;28;20527;-74
2023/11/05 03:15:53;;;;;;;4.90;1.30;;;11.50;99.90;;;;;;5048832;28;20675;-75
2023/11/05 03:18:40;;;;;;;6.20;1.40;;;11.50;99.90;;;;;;5049160;28;20456;-75
2023/11/05 03:21:28;;;;;;;8.10;1.20;;;11.50;99.90;;;;;;5052456;28;20455;-75
2023/11/05 03:24:14;;;;;;;9.93;1.30;;;11.70;99.90;;;;;;5052717;28;21078;-75
2023/11/05 03:26:59;;;;;;;5.60;1.27;;;11.70;99.90;;;;;;5047507;28;20462;-73
2023/11/05 03:29:46;;;;;;;4.97;1.40;;;11.80;99.90;;;;;;5049959;28;20966;-75
2023/11/05 03:32:32;;;;;;;5.07;1.20;;;11.80;99.90;;;;;;5048259;28;20981;-75
2023/11/05 03:35:17;;;;;;;5.40;1.10;;;11.80;99.90;;;;;;5047656;28;20446;-75
2023/11/05 03:38:03;;;;;;;4.83;1.27;;;11.90;99.90;;;;;;5045841;28;20921;-75
2023/11/05 03:40:49;;;;;;;5.60;1.33;;;11.90;99.90;;;;;;5046775;28;20454;-75
2023/11/05 03:43:35;;;;;;;5.90;1.30;;;12.00;99.90;;;;;;5049349;28;20462;-75
2023/11/05 03:46:22;;;;;;;6.63;1.37;;;12.00;99.90;;;;;;5046935;28;20493;-75
2023/11/05 03:49:08;;;;;;;2.70;0.93;;;12.10;99.90;;;;;;5050414;28;20462;-74
2023/11/05 03:51:54;;;;;;;4.87;1.20;;;12.10;99.90;;;;;;5053244;28;21268;-74
2023/11/05 03:54:42;;;;;;;7.53;1.30;;;12.20;99.90;;;;;;5051250;28;21029;-75
2023/11/05 03:57:28;;;;;;;7.87;1.30;;;12.20;99.90;;;;;;5050140;28;21023;-75
2023/11/05 04:00:15;;;;;;;7.70;1.30;;;12.20;99.90;;;;;;5047095;28;20472;-75
2023/11/05 04:03:02;;;;;;;4.43;1.03;;;12.20;99.90;;;;;;5050341;28;20791;-74
2023/11/05 04:05:50;;;;;;;4.70;1.53;;;12.20;99.90;;;;;;5049863;28;20474;-74
2023/11/05 04:08:36;;;;;;;13.50;2.03;;;12.30;99.90;;;;;;5049782;28;20455;-74
2023/11/05 04:11:21;;;;;;;5.93;1.40;;;12.30;99.90;;;;;;5048906;28;21031;-75
2023/11/05 04:14:07;;;;;;;4.40;1.13;;;12.30;99.90;;;;;;5048568;28;20447;-73
2023/11/05 04:16:54;;;;;;;2.67;1.27;;;12.30;99.90;;;;;;5044530;28;20454;-74
2023/11/05 04:19:41;;;;;;;5.73;1.00;;;12.30;99.90;;;;;;5047206;28;21096;-74
2023/11/05 04:22:27;;;;;;;7.93;1.50;;;12.30;99.90;;;;;;5050260;28;20450;-74
2023/11/05 04:25:13;;;;;;;5.70;1.67;;;12.30;99.90;;;;;;5047124;28;20521;-73
2023/11/05 04:27:58;;;;;;;4.13;1.40;;;12.30;99.90;;;;;;5047037;28;20938;-74
2023/11/05 04:30:44;;;;;;;5.80;1.10;;;12.30;99.90;;;;;;5046904;28;20480;-75
2023/11/05 04:33:30;;;;;;;4.20;1.10;;;12.20;99.90;;;;;;5047658;28;20458;-74
2023/11/05 04:36:17;;;;;;;9.03;1.83;;;12.20;99.90;;;;;;5046132;28;21055;-72
2023/11/05 04:39:02;;;;;;;4.90;1.50;;;12.20;99.90;;;;;;5045427;28;20460;-74
2023/11/05 04:41:48;;;;;;;3.23;1.23;;;12.20;99.90;;;;;;5055775;28;20556;-74
2023/11/05 04:44:35;;;;;;;7.17;1.30;;;12.20;99.90;;;;;;5049771;28;20453;-73
2023/11/05 04:47:21;;;;;;;6.37;1.60;;;12.20;99.90;;;;;;5047464;28;20588;-73
2023/11/05 04:50:07;;;;;;;7.30;1.40;;;12.20;99.90;;;;;;5055967;28;20514;-72
2023/11/05 04:52:54;;;;;;;5.17;1.07;;;12.20;99.90;;;;;;5054145;28;20461;-75
2023/11/05 04:55:40;;;;;;;6.67;2.40;;;12.20;99.90;;;;;;5052585;28;20442;-74
2023/11/05 04:58:25;;;;;;;7.50;1.43;;;12.10;99.90;;;;;;5050551;28;20466;-72
2023/11/05 05:01:11;;;;;;;8.43;1.33;;;12.10;99.90;;;;;;5052280;28;20453;-75
2023/11/05 05:03:57;;;;;;;8.80;1.47;;;12.10;99.90;;;;;;5052776;28;20466;-74
2023/11/05 05:06:43;;;;;;;5.20;1.33;;;12.20;99.90;;;;;;5055230;28;20609;-73
2023/11/05 05:09:29;;;;;;;4.47;1.33;;;12.20;99.90;;;;;;5050990;28;20493;-74
2023/11/05 05:12:15;;;;;;;6.40;1.27;;;12.20;99.90;;;;;;5051438;28;21153;-74
2023/11/05 05:15:03;;;;;;;4.17;1.50;;;12.30;99.90;;;;;;5052121;28;20988;-74
2023/11/05 05:17:49;;;;;;;6.80;1.53;;;12.30;99.90;;;;;;5050907;28;20470;-74
2023/11/05 05:20:35;;;;;;;7.60;1.47;;;12.40;99.90;;;;;;5056195;28;20538;-74
2023/11/05 05:23:20;;;;;;;3.50;0.93;;;12.40;99.90;;;;;;5051323;28;20441;-75
2023/11/05 05:26:09;;;;;;;2.37;0.90;;;12.40;99.90;;;;;;5052058;28;20535;-74
2023/11/05 05:28:54;;;;;;;8.33;1.80;;;12.50;99.90;;;;;;5051173;28;20447;-74
2023/11/05 05:31:40;;;;;;;2.17;0.90;;;12.40;99.90;;;;;;5050811;28;20505;-73
2023/11/05 05:34:26;;;;;;;5.93;1.03;;;12.40;99.90;;;;;;5048773;28;20444;-75
2023/11/05 05:37:11;;;;;;;7.87;1.23;;;12.40;99.90;;;;;;5061120;22;20569;-87
2023/11/05 05:39:57;;;;;;;3.83;1.07;;;12.40;99.90;;;;;;5050489;28;20466;-86
2023/11/05 05:42:45;;;;;;;4.00;0.90;;;12.50;99.90;;;;;;5057890;28;20482;-86
2023/11/05 05:45:32;;;;;;;7.40;1.13;;;12.50;99.90;;;;;;5048729;28;20487;-86
2023/11/05 05:48:17;;;;;;;1.73;0.73;;;12.40;99.90;;;;;;5053406;28;20417;-86
2023/11/05 05:51:03;;;;;;;6.13;0.77;;;12.40;99.90;;;;;;5049396;28;20494;-86
2023/11/05 05:53:49;;;;;;;2.90;0.90;;;12.40;99.90;;;;;;5052748;28;20439;-86
2023/11/05 05:56:34;;;;;;;2.13;1.00;;;12.40;99.90;;;;;;5053335;28;20463;-86
2023/11/05 05:59:22;;;;;;;3.63;0.70;;;12.40;99.90;;;;;;5052979;28;21272;-86
2023/11/05 06:02:07;;;;;;;3.87;1.50;;;12.40;99.90;;;;;;5057619;28;20424;-87
2023/11/05 06:04:53;;;;;;;2.67;0.90;;;12.40;99.90;;;;;;5052640;28;20450;-87
2023/11/05 06:07:38;;;;;;;3.33;1.17;;;12.40;99.90;;;;;;5057353;28;20481;-87
2023/11/05 06:10:24;;;;;;;4.90;1.20;;;12.40;99.90;;;;;;5059001;28;20439;-87
2023/11/05 06:13:10;;;;;;;3.23;1.27;;;12.40;99.90;;;;;;5052546;28;20439;-86
2023/11/05 06:15:57;;;;;;;3.73;1.10;;;12.40;99.90;;;;;;5053925;28;20542;-86
2023/11/05 06:18:42;;;;;;;3.63;1.10;;;12.40;99.90;;;;;;5052896;28;20801;-87
2023/11/05 06:21:28;;;;;;;2.10;0.73;;;12.30;99.90;;;;;;5053345;28;20436;-87
2023/11/05 06:24:14;;;;;;;2.70;1.00;;;12.30;99.90;;;;;;5053509;28;20455;-86
2023/11/05 06:26:59;;;;;;;5.63;1.07;;;12.40;99.90;;;;;;5055369;28;20890;-86
2023/11/05 06:29:45;;;;;;;11.23;0.90;;;12.30;99.90;;;;;;5054342;28;20441;-86
2023/11/05 06:32:32;;;;;;;4.47;1.10;;;12.30;99.90;;;;;;5052425;28;20574;-86
2023/11/05 06:35:18;;;;;;;1.87;0.77;;;12.30;99.90;;;;;;5055029;28;20471;-86
2023/11/05 06:38:04;;;;;;;5.50;1.07;;;12.30;99.90;;;;;;5046168;28;20987;-86
2023/11/05 06:40:50;;;;;;;4.40;0.87;;;12.30;99.90;;;;;;5056634;28;20539;-86
2023/11/05 06:43:35;;;;;;;2.07;1.10;;;12.30;99.90;;;;;;5055507;28;20433;-87
2023/11/05 06:46:21;;;;;;;2.90;0.87;;;12.30;99.90;;;;;;5054094;28;20483;-86
2023/11/05 06:49:08;;;;;;;3.33;0.87;;;12.30;99.90;;;;;;5054813;28;20466;-87
2023/11/05 06:51:54;;;;;;;3.27;0.90;;;12.20;99.90;;;;;;5062780;28;20443;-87
2023/11/05 06:54:41;;;;;;;2.57;0.90;;;12.20;99.90;;;;;;5059902;28;20432;-88
2023/11/05 06:57:27;;;;;;;1.70;0.80;;;12.20;99.90;;;;;;5058191;28;20494;-87
2023/11/05 07:00:15;;;;;;;2.57;0.90;;;12.20;99.90;;;;;;5062271;28;20980;-87
2023/11/05 07:03:01;;;;;;;1.60;0.73;;;12.20;99.90;;;;;;5059684;28;20932;-87
2023/11/05 07:05:47;;;;;;;5.80;1.00;;;12.10;99.90;;;;;;5056748;28;20505;-87
2023/11/05 07:08:34;;;;;;;6.03;1.30;;;12.00;99.90;;;;;;5058332;28;20442;-88
2023/11/05 07:11:21;;;;;;;3.50;1.10;;;12.00;99.90;;;;;;5060241;28;20808;-87
2023/11/05 07:14:07;;;;;;;2.40;0.93;;;12.00;99.90;;;;;;5068621;28;20446;-86
2023/11/05 07:16:52;;;;;;;7.80;1.33;;;11.80;99.90;;;;;;5066439;28;20449;-87
2023/11/05 07:19:38;;;;;;;4.27;1.20;;;11.70;99.90;;;;;;5067028;28;20442;-87
2023/11/05 07:22:25;;;;;;;3.43;1.17;;;11.60;99.90;;;;;;5058812;28;20432;-87
2023/11/05 07:25:10;;;;;;;3.10;1.10;;;11.50;99.90;;;;;;5057679;28;20492;-87
2023/11/05 07:27:56;;;;;;;2.87;1.13;;;11.50;99.90;;;;;;5058065;28;20851;-87
2023/11/05 07:30:42;;;;;;;4.63;1.30;;;11.40;99.90;;;;;;5058794;28;20436;-86
2023/11/05 07:33:28;;;;;;;5.87;1.10;;;11.40;99.90;;;;;;5058671;28;20466;-86
2023/11/05 07:36:15;;;;;;;3.13;0.93;;;11.40;99.90;;;;;;5053146;28;20450;-87
2023/11/05 07:39:02;;;;;;;4.63;1.30;;;11.30;99.90;;;;;;5065395;28;20425;-86
2023/11/05 07:41:49;;;;;;;3.20;1.20;;;11.30;99.90;;;;;;5064671;28;20507;-86
2023/11/05 07:44:34;;;;;;;4.63;1.10;;;11.20;99.90;;;;;;5059878;28;21005;-86
2023/11/05 07:47:22;;;;;;;4.63;1.50;;;11.20;99.90;;;;;;5052449;28;20537;-86
2023/11/05 07:50:10;;;;;;;5.97;1.60;;;11.20;99.90;;;;;;5064268;28;20425;-88
2023/11/05 07:52:56;;;;;;;4.70;1.13;;;11.20;99.90;;;;;;5056980;28;20493;-86
2023/11/05 07:55:43;;;;;;;2.27;0.90;;;11.30;99.90;;;;;;5067059;28;20477;-86
2023/11/05 07:58:29;;;;;;;4.47;1.17;;;11.20;99.90;;;;;;5059976;28;20840;-86
2023/11/05 08:01:15;;;;;;;4.40;1.80;;;11.20;99.90;;;;;;5068561;28;20498;-87
2023/11/05 08:04:01;;;;;;;3.10;1.00;;;11.30;99.90;;;;;;5064827;28;20468;-87
2023/11/05 08:06:46;;;;;;;3.70;0.80;;;11.20;99.90;;;;;;5060734;28;20477;-86
2023/11/05 08:09:32;;;;;;;2.70;0.70;;;11.20;99.90;;;;;;5063731;28;20428;-86
2023/11/05 08:12:19;;;;;;;4.53;0.80;;;11.20;99.90;;;;;;5058010;28;20420;-86
2023/11/05 08:15:06;;;;;;;5.33;0.90;;;11.30;99.90;;;;;;5058818;28;20521;-87
2023/11/05 08:17:51;;;;;;;2.40;0.90;;;11.30;99.90;;;;;;5052552;28;20957;-87
2023/11/05 08:20:37;;;;;;;2.87;1.10;;;11.30;99.90;;;;;;5059410;28;20485;-87
2023/11/05 08:23:23;;;;;;;3.50;0.77;;;11.30;99.90;;;;;;5056204;28;20442;-86
2023/11/05 08:26:08;;;;;;;1.53;0.80;;;11.30;99.90;;;;;;5053661;28;20473;-87
2023/11/05 08:28:56;;;;;;;6.70;0.90;;;11.30;99.90;;;;;;5060239;28;20534;-86
2023/11/05 08:31:42;;;;;;;3.03;0.90;;;11.30;99.90;;;;;;5062065;28;20437;-86
2023/11/05 08:34:27;;;;;;;2.23;0.80;;;11.30;99.90;;;;;;5065880;28;20461;-87
2023/11/05 08:37:13;;;;;;;5.63;0.97;;;11.30;99.90;;;;;;5057352;28;20533;-86
2023/11/05 08:39:59;;;;;;;2.10;0.93;;;11.40;99.90;;;;;;5063838;28;20584;-86
2023/11/05 08:42:45;;;;;;;2.00;0.73;;;11.40;99.90;;;;;;5067121;28;20592;-86
2023/11/05 08:45:32;;;;;;;5.67;1.33;;;11.50;99.90;;;;;;5062454;28;20474;-86
2023/11/05 08:48:18;;;;;;;1.73;0.90;;;11.40;99.90;;;;;;5057841;28;20478;-86
2023/11/05 08:51:05;;;;;;;2.00;0.90;;;11.40;99.90;;;;;;5075100;28;20439;-86
2023/11/05 08:53:50;;;;;;;4.00;1.20;;;11.50;99.90;;;;;;5060030;28;20440;-85
2023/11/05 08:56:36;;;;;;;2.90;0.93;;;11.40;99.90;;;;;;5055288;22;20958;-74
2023/11/05 08:59:22;;;;;;;5.00;1.03;;;11.40;99.90;;;;;;5035929;28;20846;-74
2023/11/05 09:02:09;;;;;;;4.00;1.00;;;11.40;99.90;;;;;;5037681;28;20825;-74
2023/11/05 09:04:55;;;;;;;2.73;0.97;;;11.40;99.90;;;;;;5036066;28;20577;-74
2023/11/05 09:07:40;;;;;;;2.70;0.93;;;11.30;99.90;;;;;;5038383;28;21038;-73
2023/11/05 09:10:26;;;;;;;1.60;0.73;;;11.30;99.90;;;;;;5070558;22;20497;-74
2023/11/05 09:13:13;;;;;;;3.77;0.90;;;11.20;99.90;;;;;;5075679;28;20588;-74
2023/11/05 09:15:59;;;;;;;3.07;0.80;;;11.30;99.90;;;;;;5072360;28;21424;-73
2023/11/05 09:18:46;;;;;;;4.40;0.97;;;11.40;99.90;;;;;;5067849;28;20770;-74
2023/11/05 09:21:32;;;;;;;2.93;1.00;;;11.40;99.90;;;;;;5070878;28;20445;-74
2023/11/05 09:24:17;;;;;;;3.80;1.10;;;11.40;99.90;;;;;;5055306;28;20446;-74
2023/11/05 09:27:03;;;;;;;3.80;1.07;;;11.40;99.90;;;;;;5058170;28;20464;-74
2023/11/05 09:29:48;;;;;;;2.70;0.77;;;11.40;99.90;;;;;;5062345;28;20461;-74
2023/11/05 09:32:34;;;;;;;1.70;0.80;;;11.50;99.90;;;;;;5066436;28;20867;-74
2023/11/05 09:35:21;;;;;;;2.10;0.80;;;11.50;99.90;;;;;;5054357;28;20500;-75
2023/11/05 09:38:07;;;;;;;2.47;0.83;;;11.50;99.90;;;;;;5058044;28;20457;-75
2023/11/05 09:40:53;;;;;;;3.07;1.20;;;11.50;99.90;;;;;;5056130;28;20476;-75
2023/11/05 09:43:39;;;;;;;2.53;0.90;;;11.50;99.90;;;;;;5057026;28;20582;-75
2023/11/05 09:46:26;;;;;;;1.60;0.87;;;11.50;99.90;;;;;;5053993;28;20955;-75
2023/11/05 09:49:12;;;;;;;1.63;0.80;;;11.50;99.90;;;;;;5052210;28;20535;-74
2023/11/05 09:52:00;;;;;;;1.60;0.70;;;11.50;99.90;;;;;;5061568;28;20978;-74
2023/11/05 09:54:46;;;;;;;4.20;1.57;;;11.40;99.90;;;;;;5055013;28;20820;-74
2023/11/05 09:57:32;;;;;;;2.10;0.70;;;11.50;99.90;;;;;;5049883;28;20532;-75
2023/11/05 10:00:18;;;;;;;1.87;0.80;;;11.50;99.90;;;;;;5052107;28;20470;-75
2023/11/05 10:03:07;;;;;;;1.90;1.00;;;11.50;99.90;;;;;;5054836;28;20792;-74
2023/11/05 10:05:55;;;;;;;1.60;0.80;;;11.50;99.90;;;;;;5053880;28;21031;-74
2023/11/05 10:08:42;;;;;;;1.40;0.70;;;11.50;99.90;;;;;;5055511;28;20520;-75
2023/11/05 10:11:30;;;;;;;3.20;1.00;;;11.50;99.90;;;;;;5047249;28;20474;-74
2023/11/05 10:14:16;;;;;;;3.23;0.93;;;11.60;99.90;;;;;;5051581;28;20586;-75
2023/11/05 10:17:02;;;;;;;1.60;0.60;;;11.70;99.90;;;;;;5052189;28;20471;-75
2023/11/05 10:19:47;;;;;;;2.53;0.70;;;11.70;99.90;;;;;;5051394;28;20468;-72
2023/11/05 10:22:33;;;;;;;1.30;0.60;;;11.70;99.90;;;;;;5054139;28;20524;-75
2023/11/05 10:25:26;;;;;;;2.27;0.83;;;11.80;99.90;;;;;;5052604;28;20604;-75
2023/11/05 10:28:13;;;;;;;3.10;1.00;;;11.80;99.90;;;;;;5058589;28;20463;-75
2023/11/05 10:30:59;;;;;;;3.20;0.80;;;11.80;99.90;;;;;;5056664;28;20445;-75
2023/11/05 10:33:46;;;;;;;1.60;0.90;;;11.80;99.90;;;;;;5063024;28;20543;-75
2023/11/05 10:36:32;;;;;;;3.00;1.80;;;11.70;99.90;;;;;;5060253;28;20561;-75
2023/11/05 10:39:18;;;;;;;2.67;1.00;;;11.70;99.90;;;;;;5064310;28;20465;-75
2023/11/05 10:42:07;;;;;;;10.33;1.63;;;11.70;99.90;;;;;;5059084;28;20490;-76
2023/11/05 10:44:53;;;;;;;1.87;1.00;;;11.70;99.90;;;;;;5051222;28;20613;-75
2023/11/05 10:47:38;;;;;;;2.73;1.33;;;11.70;99.90;;;;;;5055663;28;20489;-75
2023/11/05 10:50:26;;;;;;;3.37;1.20;;;11.70;99.90;;;;;;5049357;28;20597;-75
2023/11/05 10:53:11;;;;;;;9.00;1.43;;;11.70;99.90;;;;;;5054513;28;20653;-75
2023/11/05 10:55:57;;;;;;;2.57;1.20;;;11.80;99.90;;;;;;5050053;28;20800;-75
2023/11/05 10:58:44;;;;;;;2.23;1.00;;;11.80;99.90;;;;;;5055834;28;20449;-75
2023/11/05 11:01:31;;;;;;;4.40;0.90;;;11.80;99.90;;;;;;5056800;28;20462;-75
2023/11/05 11:04:19;;;;;;;3.30;0.90;;;11.80;99.90;;;;;;5051426;28;20576;-75
2023/11/05 11:07:04;;;;;;;2.33;0.97;;;11.80;99.90;;;;;;5049577;28;20489;-76
2023/11/05 11:09:50;;;;;;;1.80;0.83;;;11.80;99.90;;;;;;5046841;28;20573;-75
2023/11/05 11:12:38;;;;;;;1.60;0.67;;;11.80;99.90;;;;;;5054593;28;20506;-75
2023/11/05 11:15:36;;;;;;;3.70;1.00;;;11.90;99.90;;;;;;5058686;28;20612;-74
2023/11/05 11:18:27;;;;;;;2.03;0.90;;;11.90;99.90;;;;;;5057893;28;20446;-75
2023/11/05 11:21:13;;;;;;;14.43;1.03;;;11.80;99.90;;;;;;5050397;28;20441;-75
2023/11/05 11:24:06;;;;;;;4.40;0.83;;;11.80;99.90;;;;;;5045423;28;20443;-75
2023/11/05 11:26:53;;;;;;;1.40;0.67;;;11.80;99.90;;;;;;5050062;28;20473;-75
2023/11/05 11:29:42;;;;;;;2.50;0.80;;;11.80;99.90;;;;;;5052586;28;20461;-75
2023/11/05 11:32:29;;;;;;;3.07;1.10;;;11.80;99.90;;;;;;5045868;28;20589;-75
2023/11/05 11:35:16;;;;;;;2.57;1.00;;;11.80;99.90;;;;;;5047120;28;20597;-74
2023/11/05 11:38:04;;;;;;;3.00;1.00;;;11.80;99.90;;;;;;5050582;28;20445;-75
2023/11/05 11:40:54;;;;;;;2.70;1.10;;;11.70;99.90;;;;;;5055549;28;20513;-75
2023/11/05 11:43:41;;;;;;;2.47;1.47;;;11.70;99.90;;;;;;5049873;28;20865;-75
2023/11/05 11:46:27;;;;;;;1.93;1.00;;;11.60;99.90;;;;;;5046916;28;20453;-75
2023/11/05 11:49:14;;;;;;;2.00;1.10;;;11.50;99.90;;;;;;5051458;28;20812;-75
2023/11/05 11:51:59;;;;;;;2.53;0.90;;;11.50;99.90;;;;;;5052804;28;20532;-75
2023/11/05 11:54:45;;;;;;;2.00;0.90;;;11.50;99.90;;;;;;5051592;28;20489;-73
2023/11/05 11:57:31;;;;;;;1.93;0.70;;;11.60;99.90;;;;;;5042400;28;20544;-75
2023/11/05 12:00:20;;;;;;;2.07;1.07;;;11.60;99.90;;;;;;5049582;28;20470;-75
2023/11/05 12:03:05;;;;;;;7.20;1.30;;;11.70;99.90;;;;;;5042109;28;20988;-76
2023/11/05 12:05:53;;;;;;;2.67;1.03;;;11.70;99.90;;;;;;5048703;28;20946;-75
2023/11/05 12:08:39;;;;;;;3.60;0.90;;;11.70;99.90;;;;;;5048999;28;20883;-75
2023/11/05 12:11:29;;;;;;;1.80;0.93;;;11.70;99.90;;;;;;5041756;28;20560;-74
2023/11/05 12:14:18;;;;;;;3.53;1.47;;;11.70;99.90;;;;;;5041462;28;20453;-75
2023/11/05 12:17:04;;;;;;;3.10;0.90;;;11.80;99.90;;;;;;5037290;28;20656;-76
2023/11/05 12:19:50;;;;;;;4.67;1.47;;;11.90;99.90;;;;;;5055175;28;20474;-75
2023/11/05 12:22:37;;;;;;;2.20;1.03;;;12.00;99.90;;;;;;5060864;28;20438;-75
2023/11/05 12:25:23;;;;;;;4.47;0.93;;;12.00;99.90;;;;;;5060705;28;20434;-75
2023/11/05 12:28:09;;;;;;;1.50;0.60;;;12.00;99.90;;;;;;5047687;28;20486;-75
2023/11/05 12:30:56;;;;;;;1.93;0.93;;;12.00;99.90;;;;;;5045087;28;20466;-75
2023/11/05 12:33:42;;;;;;;3.10;1.03;;;12.10;99.90;;;;;;5054118;28;20449;-75
2023/11/05 12:36:28;;;;;;;2.33;0.97;;;12.10;99.90;;;;;;5050360;28;20451;-75
2023/11/05 12:39:15;;;;;;;1.80;0.93;;;12.20;99.90;;;;;;5059819;28;20453;-75
2023/11/05 12:42:00;;;;;;;2.77;0.80;;;12.20;99.90;;;;;;5056169;28;20472;-75
2023/11/05 12:44:46;;;;;;;4.20;1.20;;;12.30;99.90;;;;;;5060254;28;20434;-75
2023/11/05 12:47:32;;;;;;;3.23;1.10;;;12.20;99.90;;;;;;5054059;28;20563;-76
2023/11/05 12:50:17;;;;;;;4.50;1.10;;;12.20;99.90;;;;;;5047668;28;20527;-77
2023/11/05 12:53:03;;;;;;;4.30;1.97;;;12.30;99.90;;;;;;5046365;28;21065;-77
2023/11/05 12:56:00;;;;;;;2.33;0.90;;;12.40;99.90;;;;;;5058889;28;20441;-75
2023/11/05 12:58:48;;;;;;;1.50;0.60;;;12.40;99.90;;;;;;5064431;28;20408;-75
2023/11/05 13:01:35;;;;;;;2.90;1.20;;;12.30;99.90;;;;;;5056108;28;20517;-74
2023/11/05 13:04:21;;;;;;;1.77;0.70;;;12.30;99.90;;;;;;5061545;28;21032;-76
2023/11/05 13:07:07;;;;;;;5.93;2.10;;;12.30;99.90;;;;;;5050993;28;20943;-77
2023/11/05 13:09:53;;;;;;;1.77;0.83;;;12.30;99.90;;;;;;5062678;28;20599;-75
2023/11/05 13:12:40;;;;;;;2.20;1.33;;;12.30;99.90;;;;;;5061444;28;20425;-76
2023/11/05 13:15:28;;;;;;;2.10;1.40;;;12.30;99.90;;;;;;5053787;28;20429;-75
2023/11/05 13:18:14;;;;;;;3.83;0.87;;;12.30;99.90;;;;;;5066731;28;20952;-77
2023/11/05 13:21:00;;;;;;;1.47;0.70;;;12.20;99.90;;;;;;5065577;28;20540;-77
2023/11/05 13:23:46;;;;;;;1.50;0.60;;;12.20;99.90;;;;;;5067507;28;20535;-77
2023/11/05 13:26:32;;;;;;;3.33;0.93;;;12.10;99.90;;;;;;5063278;28;20437;-76
2023/11/05 13:29:19;;;;;;;1.93;0.60;;;12.10;99.90;;;;;;5065411;28;20517;-77
2023/11/05 13:32:05;;;;;;;1.70;0.50;;;12.00;99.90;;;;;;5061128;28;20430;-76
2023/11/05 13:34:51;;;;;;;1.87;0.87;;;12.00;99.90;;;;;;5048827;28;20846;-76
2023/11/05 13:37:37;;;;;;;2.77;0.80;;;12.00;99.90;;;;;;5052065;28;20450;-76
2023/11/05 13:40:25;;;;;;;3.30;0.80;;;12.00;99.90;;;;;;5051097;28;20520;-76
2023/11/05 13:43:11;;;;;;;1.47;0.70;;;11.80;99.90;;;;;;5051393;28;20450;-76
2023/11/05 13:45:58;;;;;;;3.53;1.00;;;11.80;99.90;;;;;;5053757;28;20453;-74
2023/11/05 13:48:43;;;;;;;2.33;1.07;;;11.80;99.90;;;;;;5056079;28;20477;-76
2023/11/05 13:51:29;;;;;;;1.53;0.90;;;11.80;99.90;;;;;;5050047;28;20465;-74
2023/11/05 13:54:15;;;;;;;3.70;2.13;;;11.80;99.90;;;;;;5053953;28;20865;-76
2023/11/05 13:57:02;;;;;;;7.27;2.10;;;11.90;99.90;;;;;;5059051;28;20519;-74
2023/11/05 13:59:51;;;;;;;3.93;1.90;;;11.80;99.90;;;;;;5061242;28;20999;-77
2023/11/05 14:02:37;;;;;;;5.63;5.13;;;11.90;99.90;;;;;;5061173;28;20458;-75
2023/11/05 14:05:23;;;;;;;2.10;1.10;;;11.80;99.90;;;;;;5054144;28;20429;-76
2023/11/05 14:08:10;;;;;;;1.83;0.90;;;11.80;99.90;;;;;;5062705;28;20480;-75
2023/11/05 14:10:55;;;;;;;2.75;0.77;;;11.70;99.90;;;;;;5055441;28;20429;-77
2023/11/05 14:13:41;;;;;;;4.53;0.97;;;11.70;99.90;;;;;;5061688;28;20215;-77
2023/11/05 14:16:27;;;;;;;2.93;1.40;;;11.70;99.90;;;;;;5057848;28;20496;-77
2023/11/05 14:19:14;;;;;;;1.60;1.00;;;11.80;99.90;;;;;;5051783;28;20474;-76
2023/11/05 14:22:00;;;;;;;2.90;1.40;;;11.80;99.90;;;;;;5056289;28;20421;-76
2023/11/05 14:24:45;;;;;;;3.97;1.50;;;11.90;99.90;;;;;;5057956;28;20462;-76